createdAt,value
2018-05-14T15:02:35.704Z,13.90
2018-05-14T15:11:18.145Z,18.70
2018-05-14T15:13:46.291Z,19.20
2018-05-14T15:16:14.327Z,20.00
2018-05-14T15:18:42.393Z,21.00
2018-05-14T15:21:10.425Z,22.40
2018-05-14T15:23:38.469Z,22.70
2018-05-14T15:26:06.536Z,23.20
2018-05-14T15:28:34.589Z,24.00
2018-05-14T15:31:02.651Z,25.40
2018-05-14T15:33:30.720Z,23.50
2018-05-14T15:35:58.756Z,25.40
2018-05-14T15:38:26.844Z,26.90
2018-05-14T15:40:55.674Z,28.20
2018-05-14T15:43:23.705Z,28.10
2018-05-14T15:45:51.785Z,28.50
2018-05-14T15:48:19.847Z,28.20
2018-05-14T15:50:47.918Z,28.80
2018-05-14T15:53:15.986Z,29.40
2018-05-14T15:55:44.063Z,30.00
2018-05-14T15:58:12.102Z,30.00
2018-05-14T16:00:40.146Z,30.00
2018-05-14T16:03:08.210Z,30.80
2018-05-14T16:05:36.237Z,31.00
2018-05-14T16:08:04.308Z,30.60
2018-05-14T16:10:32.368Z,31.30
2018-05-14T16:13:00.413Z,31.70
2018-05-14T16:15:28.448Z,30.90
2018-05-14T16:17:56.516Z,32.00
2018-05-14T16:20:24.572Z,30.90
2018-05-14T16:22:52.602Z,26.40
2018-05-14T16:25:20.682Z,27.10
2018-05-14T16:27:48.750Z,28.80
2018-05-14T16:30:16.785Z,28.70
2018-05-14T16:32:44.870Z,26.10
2018-05-14T16:35:12.914Z,25.10
2018-05-14T16:37:41.209Z,25.80
2018-05-14T16:40:09.282Z,25.10
2018-05-14T16:42:37.317Z,22.90
2018-05-14T16:45:05.364Z,22.10
2018-05-14T16:47:33.416Z,24.90
2018-05-14T16:50:01.458Z,27.10
2018-05-14T16:52:29.492Z,28.50
2018-05-14T16:54:57.564Z,29.60
2018-05-14T16:57:25.600Z,31.50
2018-05-14T16:59:53.647Z,32.10
2018-05-14T17:02:21.708Z,34.30
2018-05-14T17:04:49.745Z,34.40
2018-05-14T17:07:17.792Z,31.80
2018-05-14T17:09:45.847Z,35.00
2018-05-14T17:12:13.881Z,34.90
2018-05-14T17:14:41.916Z,34.20
2018-05-14T17:17:09.976Z,37.40
2018-05-14T17:19:38.027Z,38.40
2018-05-14T17:22:06.065Z,37.40
2018-05-14T17:24:34.910Z,39.70
2018-05-14T17:27:02.949Z,39.50
2018-05-14T17:29:31.001Z,40.10
2018-05-14T17:31:59.064Z,39.50
2018-05-14T17:34:27.097Z,40.90
2018-05-14T17:36:55.148Z,45.10
2018-05-14T17:39:23.210Z,47.90
2018-05-14T17:41:51.261Z,50.10
2018-05-14T17:44:19.314Z,52.50
2018-05-14T17:46:47.405Z,53.70
2018-05-14T17:49:16.213Z,58.30
2018-05-14T17:51:44.268Z,58.10
2018-05-14T17:54:13.115Z,62.00
2018-05-14T17:56:41.177Z,61.90
2018-05-14T17:59:09.233Z,65.50
2018-05-14T18:01:37.469Z,69.00
2018-05-14T18:04:07.048Z,76.90
2018-05-14T18:06:35.098Z,76.60
2018-05-14T18:09:03.313Z,79.40
2018-05-14T18:11:31.356Z,78.60
2018-05-14T18:13:59.441Z,81.60
2018-05-14T18:16:27.547Z,83.60
2018-05-14T18:18:56.370Z,87.40
2018-05-14T18:21:30.145Z,87.20
2018-05-14T18:23:59.014Z,90.30
2018-05-14T18:26:32.837Z,90.30
2018-05-14T18:29:09.227Z,90.80
2018-05-14T18:34:40.349Z,93.20
2018-05-14T18:37:08.435Z,93.60
2018-05-14T18:39:36.493Z,93.50
2018-05-14T18:42:04.669Z,94.70
2018-05-14T18:44:33.716Z,96.30
2018-05-14T18:47:01.765Z,97.60
2018-05-14T18:49:29.819Z,98.90
2018-05-14T18:51:57.947Z,99.90
2018-05-14T18:54:25.996Z,99.90
2018-05-14T18:56:54.052Z,99.90
2018-05-14T18:59:22.151Z,99.90
2018-05-14T19:01:50.218Z,99.90
2018-05-14T19:04:18.290Z,99.90
2018-05-14T19:06:46.382Z,99.90
2018-05-14T19:09:15.196Z,99.90
2018-05-14T19:11:55.806Z,99.90
2018-05-14T19:14:23.841Z,99.90
2018-05-14T19:16:57.564Z,99.90
2018-05-14T19:19:26.711Z,99.90
2018-05-14T19:21:54.762Z,99.90
2018-05-14T19:24:22.957Z,99.90
2018-05-14T19:26:51.944Z,99.90
2018-05-14T19:29:25.846Z,99.90
2018-05-14T19:31:53.821Z,99.90
